Murray Stahl, insider at Texas Pacific Land

Murray Stahl Insider Information

Director of Texas Pacific Land
Founder of Horizon Kinetics Asset Management LLC, Kinetics Asset Management LLC, Horizon Kinetics LLC and Kinetics Advisers LLC, Murray Stahl is an entrepreneur and businessperson who has been the head of 8 different companies and presently is Chairman & Chief Executive Officer for FRMO Corp., Chairman & Chief Executive Officer at Fromex Equity Corp. (a subsidiary of FRMO Corp.), Chairman, President, Chief Executive Officer & CFO at RENN Fund, Inc., Chairman, Chief Executive & Investment Officer at Horizon Kinetics LLC, Chairman, CEO & CIO at Horizon Kinetics Asset Management LLC and Secretary & Director at Kinetics Mutual Funds, Inc. (both are subsidiaries of Horizon Kinetics LLC) and Chairman for Minneapolis Grain Exchange, Inc. Mr. Stahl is also on the board of Winland Holdings Corp., The Bermuda Stock Exchange Ltd., MSRH LLC and Texas Pacific Land Corp.

In his past career Murray Stahl occupied the position of Chairman, CEO & CIO at Kinetics Asset Management LLC, Chairman, Chief Executive & Investment Officer at Kinetics Advisers LLC and Senior Portfolio Manager & Research Analyst at Bankers Trust Co. (Des Moines, Iowa).

Mr. Stahl received an undergraduate degree and a graduate degree from Brooklyn College and an MBA from Pace University.

What is Murray Stahl's net worth?

The estimated net worth of Murray Stahl is at least $5.69 million as of August 15th, 2022. Mr. Stahl owns 3,432 shares of Texas Pacific Land stock worth more than $5,693,173 as of August 16th. This net worth evaluation does not reflect any other assets that Mr. Stahl may own. Learn More about Murray Stahl's net worth.

How do I contact Murray Stahl?

The corporate mailing address for Mr. Stahl and other Texas Pacific Land executives is 1700 PACIFIC AVENUE SUITE 2900, DALLAS TX, 75201. Texas Pacific Land can also be reached via phone at (214) 969-5530. Learn More on Murray Stahl's contact information.

Has Murray Stahl been buying or selling shares of Texas Pacific Land?

In the last ninety days, Murray Stahl has bought $91,166.64 of Texas Pacific Land stock. Most recently, on Monday, August 15th, Murray Stahl bought 3 shares of Texas Pacific Land stock. The stock was acquired at an average cost of $1,687.30 per share, with a total value of $5,061.90. Following the completion of the transaction, the director now directly owns 1,783 shares of the company's stock, valued at $3,008,455.90. Learn More on Murray Stahl's trading history.

Who are Texas Pacific Land's active insiders?

Texas Pacific Land's insider roster includes Tyler Glover (CEO), and Murray Stahl (Director). Learn More on Texas Pacific Land's active insiders.

Are insiders buying or selling shares of Texas Pacific Land?

During the last year, Texas Pacific Land insiders bought shares 145 times. They purchased a total of 444 shares worth more than $600,076.17. During the last year, insiders at the financial services provider sold shares 1 times. They sold a total of 1,000 shares worth more than $1,261,750.00. The most recent insider tranaction occured on August, 15th when Director Murray Stahl bought 3 shares worth more than $5,061.90. Insiders at Texas Pacific Land own 3.8 % of the company. Learn More about insider trades at Texas Pacific Land.

Information on this page was last updated on 8/15/2022.

Murray Stahl Insider Trading History at Texas Pacific Land

Transaction DateBuy/SellNumber of SharesAverage Share PriceTotal TransactionShares Held After TransactionDetails
8/15/2022Buy3$1,687.30$5,061.901,783View SEC Filing Icon  
8/11/2022Buy3$1,744.60$5,233.801,777View SEC Filing Icon  
8/9/2022Buy3$1,711.00$5,133.001,771View SEC Filing Icon  
8/5/2022Buy3$1,656.82$4,970.461,765View SEC Filing Icon  
8/3/2022Buy3$1,769.41$5,308.231,759View SEC Filing Icon  
8/1/2022Buy3$1,821.94$5,465.821,780View SEC Filing Icon  
7/29/2022Buy3$1,833.85$5,501.551,777View SEC Filing Icon  
7/27/2022Buy3$1,828.92$5,486.761,771View SEC Filing Icon  
7/25/2022Buy3$1,769.93$5,309.791,765View SEC Filing Icon  
7/22/2022Buy3$1,720.00$5,160.001,762View SEC Filing Icon  
7/20/2022Buy3$1,811.94$5,435.821,756View SEC Filing Icon  
7/18/2022Buy3$1,692.57$5,077.711,750View SEC Filing Icon  
7/15/2022Buy3$1,666.67$5,000.011,747View SEC Filing Icon  
7/13/2022Buy3$1,599.37$4,798.111,741View SEC Filing Icon  
7/11/2022Buy3$1,547.00$4,641.001,735View SEC Filing Icon  
7/7/2022Buy3$1,532.24$4,596.721,729View SEC Filing Icon  
7/5/2022Buy3$1,468.35$4,405.051,750View SEC Filing Icon  
7/1/2022Buy3$1,526.97$4,580.911,747View SEC Filing Icon  
6/29/2022Buy3$1,505.79$4,517.371,741View SEC Filing Icon  
6/27/2022Buy3$1,538.64$4,615.921,735View SEC Filing Icon  
6/23/2022Buy3$1,458.12$4,374.361,729View SEC Filing Icon  
6/21/2022Buy3$1,542.56$4,627.681,723View SEC Filing Icon  
6/17/2022Buy3$1,456.18$4,368.541,720View SEC Filing Icon  
6/15/2022Buy3$1,624.00$4,872.001,714View SEC Filing Icon  
6/13/2022Buy3$1,603.50$4,810.501,708View SEC Filing Icon  
6/10/2022Buy3$1,712.92$5,138.761,705View SEC Filing Icon  
6/8/2022Buy3$1,719.86$5,159.581,699View SEC Filing Icon  
6/6/2022Buy3$1,681.77$5,045.311,693View SEC Filing Icon  
6/2/2022Buy3$1,632.67$4,898.011,687View SEC Filing Icon  
5/31/2022Buy3$1,565.99$4,697.971,708View SEC Filing Icon  
5/27/2022Buy3$1,574.02$4,722.061,705View SEC Filing Icon  
5/25/2022Buy3$1,486.84$4,460.521,699View SEC Filing Icon  
5/23/2022Buy3$1,406.52$4,219.561,693View SEC Filing Icon  
5/20/2022Buy3$1,372.30$4,116.901,690View SEC Filing Icon  
5/18/2022Buy3$1,354.24$4,062.721,684View SEC Filing Icon  
5/16/2022Buy3$1,369.32$4,107.961,678View SEC Filing Icon  
5/13/2022Buy3$1,351.93$4,055.791,675View SEC Filing Icon  
5/11/2022Buy3$1,275.67$3,827.011,669View SEC Filing Icon  
5/9/2022Buy3$1,296.99$3,890.971,663View SEC Filing Icon  
5/6/2022Buy3$1,423.84$4,271.521,660View SEC Filing Icon  
5/4/2022Buy3$1,424.91$4,274.731,654View SEC Filing Icon  
5/2/2022Buy3$1,357.52$4,072.561,675View SEC Filing Icon  
4/29/2022Buy3$1,366.60$4,099.801,672View SEC Filing Icon  
4/27/2022Buy3$1,332.63$3,997.891,666View SEC Filing Icon  
4/25/2022Buy3$1,371.56$4,114.681,660View SEC Filing Icon  
4/22/2022Buy3$1,378.33$4,134.991,657View SEC Filing Icon  
4/20/2022Buy3$1,506.29$4,518.871,651View SEC Filing Icon  
4/18/2022Buy3$1,488.81$4,466.431,645View SEC Filing Icon  
4/13/2022Buy3$1,458.55$4,375.651,639View SEC Filing Icon  
4/11/2022Buy3$1,390.83$4,172.491,633View SEC Filing Icon  
4/8/2022Buy3$1,426.30$4,278.901,630View SEC Filing Icon  
4/6/2022Buy3$1,413.75$4,241.251,627View SEC Filing Icon  
4/4/2022Buy3$1,479.30$4,437.901,621View SEC Filing Icon  
4/1/2022Buy3$1,421.36$4,264.081,615View SEC Filing Icon  
3/30/2022Buy3$1,450.35$4,351.05View SEC Filing Icon  
3/28/2022Buy3$1,401.90$4,205.70View SEC Filing Icon  
3/25/2022Buy3$1,454.50$4,363.50View SEC Filing Icon  
3/23/2022Buy3$1,420.01$4,260.03View SEC Filing Icon  
3/21/2022Buy3$1,395.74$4,187.22View SEC Filing Icon  
3/18/2022Buy3$1,348.45$4,045.35View SEC Filing Icon  
3/16/2022Buy3$1,274.67$3,824.01View SEC Filing Icon  
3/14/2022Buy3$1,284.09$3,852.27View SEC Filing Icon  
3/11/2022Buy3$1,316.12$3,948.36View SEC Filing Icon  
3/9/2022Buy3$1,285.97$3,857.91View SEC Filing Icon  
3/4/2022Buy3$1,299.15$3,897.45View SEC Filing Icon  
3/2/2022Buy3$1,242.75$3,728.25View SEC Filing Icon  
2/28/2022Buy3$1,188.73$3,566.19View SEC Filing Icon  
2/24/2022Buy2$1,098.30$2,196.60View SEC Filing Icon  
2/22/2022Buy2$999.24$1,998.48View SEC Filing Icon  
2/18/2022Buy3$1,005.68$3,017.04View SEC Filing Icon  
2/16/2022Buy3$1,020.38$3,061.14View SEC Filing Icon  
2/14/2022Buy3$1,060.01$3,180.03View SEC Filing Icon  
2/11/2022Buy3$1,105.45$3,316.35View SEC Filing Icon  
2/9/2022Buy3$1,066.92$3,200.76View SEC Filing Icon  
2/7/2022Buy3$1,076.34$3,229.02View SEC Filing Icon  
2/4/2022Buy3$1,092.83$3,278.49View SEC Filing Icon  
2/2/2022Buy3$1,114.40$3,343.20View SEC Filing Icon  
1/31/2022Buy3$1,075.00$3,225.00View SEC Filing Icon  
1/28/2022Buy3$1,034.84$3,104.52View SEC Filing Icon  
1/26/2022Buy3$1,023.92$3,071.76View SEC Filing Icon  
1/24/2022Buy3$1,039.27$3,117.81View SEC Filing Icon  
1/20/2022Buy3$1,010.76$3,032.28View SEC Filing Icon  
1/18/2022Buy3$1,067.40$3,202.20View SEC Filing Icon  
1/14/2022Buy3$1,111.77$3,335.31View SEC Filing Icon  
1/12/2022Buy3$1,223.97$3,671.91View SEC Filing Icon  
1/10/2022Buy3$1,213.07$3,639.21View SEC Filing Icon  
1/5/2022Buy3$1,257.09$3,771.27View SEC Filing Icon  
1/3/2022Buy3$1,274.14$3,822.42View SEC Filing Icon  
12/29/2021Buy3$1,251.75$3,755.25View SEC Filing Icon  
12/27/2021Buy3$1,283.58$3,850.74View SEC Filing Icon  
12/22/2021Buy3$1,229.80$3,689.40View SEC Filing Icon  
12/20/2021Buy3$1,209.94$3,629.82View SEC Filing Icon  
12/17/2021Buy3$1,206.73$3,620.19View SEC Filing Icon  
12/15/2021Buy3$1,236.34$3,709.02View SEC Filing Icon  
12/13/2021Buy3$1,245.48$3,736.44View SEC Filing Icon  
12/10/2021Buy3$1,267.96$3,803.88View SEC Filing Icon  
12/8/2021Buy3$1,288.16$3,864.48View SEC Filing Icon  
12/6/2021Buy3$1,263.61$3,790.83View SEC Filing Icon  
12/3/2021Buy3$1,205.66$3,616.98View SEC Filing Icon  
12/1/2021Buy3$1,180.49$3,541.47View SEC Filing Icon  
11/29/2021Buy3$1,263.01$3,789.03View SEC Filing Icon  
11/26/2021Buy14$1,242.99$17,401.86View SEC Filing Icon  
11/24/2021Buy3$1,307.48$3,922.44View SEC Filing Icon  
11/22/2021Buy3$1,253.80$3,761.40View SEC Filing Icon  
11/19/2021Buy3$1,245.91$3,737.73View SEC Filing Icon  
11/17/2021Buy3$1,258.02$3,774.06View SEC Filing Icon  
11/15/2021Buy3$1,295.13$3,885.39View SEC Filing Icon  
11/12/2021Buy3$1,296.53$3,889.59View SEC Filing Icon  
11/10/2021Buy3$1,339.90$4,019.70View SEC Filing Icon  
11/8/2021Buy3$1,385.42$4,156.26View SEC Filing Icon  
11/5/2021Buy3$1,367.57$4,102.71View SEC Filing Icon  
11/3/2021Buy3$1,274.00$3,822.00View SEC Filing Icon  
11/1/2021Buy3$1,313.30$3,939.90View SEC Filing Icon  
10/29/2021Buy3$1,273.67$3,821.01View SEC Filing Icon  
10/27/2021Buy3$1,242.90$3,728.70View SEC Filing Icon  
10/25/2021Buy3$1,293.77$3,881.31View SEC Filing Icon  
10/22/2021Buy3$1,265.98$3,797.94View SEC Filing Icon  
10/20/2021Buy3$1,270.92$3,812.76View SEC Filing Icon  
10/18/2021Buy3$1,225.00$3,675.00View SEC Filing Icon  
10/15/2021Buy3$1,222.36$3,667.08View SEC Filing Icon  
10/13/2021Buy3$1,194.84$3,584.52View SEC Filing Icon  
10/11/2021Buy3$1,198.01$3,594.03View SEC Filing Icon  
10/8/2021Buy3$1,213.44$3,640.32View SEC Filing Icon  
10/6/2021Buy3$1,162.33$3,486.99View SEC Filing Icon  
10/4/2021Buy3$1,151.79$3,455.37View SEC Filing Icon  
10/1/2021Buy3$1,173.01$3,519.03View SEC Filing Icon  
9/29/2021Buy3$1,240.60$3,721.80View SEC Filing Icon  
9/27/2021Buy3$1,367.00$4,101.00View SEC Filing Icon  
9/24/2021Buy3$1,301.52$3,904.56View SEC Filing Icon  
9/22/2021Buy3$1,267.29$3,801.87View SEC Filing Icon  
9/20/2021Buy3$1,243.06$3,729.18View SEC Filing Icon  
9/17/2021Buy3$1,300.40$3,901.20View SEC Filing Icon  
9/15/2021Buy3$1,252.62$3,757.86View SEC Filing Icon  
9/13/2021Buy3$1,242.47$3,727.41View SEC Filing Icon  
9/9/2021Buy3$1,226.76$3,680.28View SEC Filing Icon  
9/7/2021Buy3$1,218.78$3,656.34View SEC Filing Icon  
9/3/2021Buy3$1,295.88$3,887.64View SEC Filing Icon  
9/1/2021Buy3$1,354.85$4,064.55View SEC Filing Icon  
8/30/2021Buy3$1,415.41$4,246.23View SEC Filing Icon  
8/27/2021Buy3$1,415.00$4,245.00View SEC Filing Icon  
8/25/2021Buy3$1,416.92$4,250.76View SEC Filing Icon  
8/23/2021Buy3$1,364.00$4,092.00View SEC Filing Icon  
8/20/2021Buy3$1,332.64$3,997.92View SEC Filing Icon  
8/18/2021Buy3$1,369.50$4,108.50View SEC Filing Icon  
8/16/2021Buy3$1,449.16$4,347.48View SEC Filing Icon  
8/13/2021Buy3$1,483.39$4,450.17View SEC Filing Icon  
8/11/2021Buy3$1,491.38$4,474.14View SEC Filing Icon  
8/9/2021Buy3$1,486.20$4,458.60View SEC Filing Icon  
8/6/2021Buy3$1,479.81$4,439.43View SEC Filing Icon  
8/4/2021Buy3$1,446.13$4,338.39View SEC Filing Icon  
8/2/2021Buy3$1,478.85$4,436.55View SEC Filing Icon  
7/30/2021Buy3$1,492.55$4,477.65View SEC Filing Icon  
7/28/2021Buy3$1,483.07$4,449.21View SEC Filing Icon  
7/26/2021Buy3$1,496.20$4,488.60View SEC Filing Icon  
7/23/2021Buy3$1,499.99$4,499.97View SEC Filing Icon  
7/21/2021Buy3$1,524.04$4,572.12View SEC Filing Icon  
7/19/2021Buy3$1,398.34$4,195.02View SEC Filing Icon  
7/16/2021Buy3$1,415.70$4,247.10View SEC Filing Icon  
7/14/2021Buy3$1,477.65$4,432.95View SEC Filing Icon  
7/12/2021Buy3$1,545.69$4,637.07View SEC Filing Icon  
7/8/2021Buy3$1,460.07$4,380.21View SEC Filing Icon  
7/6/2021Buy3$1,549.11$4,647.33View SEC Filing Icon  
7/1/2021Buy3$1,615.84$4,847.52View SEC Filing Icon  
6/28/2021Buy3$1,552.94$4,658.82View SEC Filing Icon  
6/25/2021Buy3$1,576.09$4,728.27View SEC Filing Icon  
6/23/2021Buy3$1,607.88$4,823.64View SEC Filing Icon  
6/21/2021Buy3$1,593.45$4,780.35View SEC Filing Icon  
6/18/2021Buy3$1,516.92$4,550.76View SEC Filing Icon  
6/16/2021Buy3$1,564.00$4,692.00View SEC Filing Icon  
6/14/2021Buy3$1,498.00$4,494.00View SEC Filing Icon  
6/10/2021Buy3$1,491.99$4,475.97View SEC Filing Icon  
6/7/2021Buy3$1,507.00$4,521.00View SEC Filing Icon  
6/4/2021Buy3$1,486.34$4,459.02View SEC Filing Icon  
6/2/2021Buy3$1,490.62$4,471.86View SEC Filing Icon  
5/28/2021Buy3$1,453.12$4,359.36View SEC Filing Icon  
5/26/2021Buy3$1,468.50$4,405.50View SEC Filing Icon  
5/24/2021Buy3$1,506.44$4,519.32View SEC Filing Icon  
5/21/2021Buy3$1,540.00$4,620.00View SEC Filing Icon  
5/19/2021Buy3$1,514.71$4,544.13View SEC Filing Icon  
5/17/2021Buy3$1,650.00$4,950.002,000View SEC Filing Icon  
5/14/2021Buy3$1,688.17$5,064.51View SEC Filing Icon  
5/12/2021Buy3$1,688.83$5,066.49View SEC Filing Icon  
5/10/2021Buy3$1,750.57$5,251.71View SEC Filing Icon  
5/6/2021Buy3$1,607.88$4,823.64View SEC Filing Icon  
5/4/2021Buy3$1,637.95$4,913.85View SEC Filing Icon  
4/30/2021Buy3$1,540.15$4,620.45View SEC Filing Icon  
4/28/2021Buy3$1,658.29$4,974.87View SEC Filing Icon  
4/26/2021Buy3$1,576.02$4,728.06View SEC Filing Icon  
4/23/2021Buy3$1,472.68$4,418.04View SEC Filing Icon  
4/21/2021Buy3$1,456.65$4,369.95View SEC Filing Icon  
4/19/2021Buy3$1,546.00$4,638.00View SEC Filing Icon  
4/14/2021Buy3$1,613.00$4,839.00View SEC Filing Icon  
4/12/2021Buy3$1,598.38$4,795.14View SEC Filing Icon  
4/9/2021Buy3$1,598.19$4,794.57View SEC Filing Icon  
4/7/2021Buy3$1,612.57$4,837.71View SEC Filing Icon  
4/5/2021Buy3$1,587.99$4,763.97View SEC Filing Icon  
3/31/2021Buy3$1,589.43$4,768.29View SEC Filing Icon  
3/29/2021Buy3$1,476.34$4,429.02View SEC Filing Icon  
3/26/2021Buy3$1,578.00$4,734.00View SEC Filing Icon  
3/24/2021Buy3$1,486.40$4,459.20View SEC Filing Icon  
3/22/2021Buy3$1,583.52$4,750.56View SEC Filing Icon  
3/19/2021Buy3$1,675.45$5,026.35View SEC Filing Icon  
3/17/2021Buy3$1,703.78$5,111.34View SEC Filing Icon  
3/15/2021Buy3$1,557.92$4,673.762,000View SEC Filing Icon  
3/12/2021Buy3$1,437.00$4,311.001,177View SEC Filing Icon  
3/10/2021Buy3$1,359.37$4,078.111,171View SEC Filing Icon  
3/8/2021Buy3$1,258.00$3,774.001,165View SEC Filing Icon  
3/4/2021Buy3$1,175.02$3,525.061,159View SEC Filing Icon  
3/1/2021Buy3$1,107.78$3,323.341,241View SEC Filing Icon  
2/26/2021Buy3$1,104.04$3,312.121,238View SEC Filing Icon  
2/24/2021Buy3$1,143.52$3,430.561,232View SEC Filing Icon  
2/22/2021Buy3$1,100.01$3,300.031,226View SEC Filing Icon  
2/19/2021Buy5$1,109.00$5,545.001,222View SEC Filing Icon  
2/17/2021Buy5$1,142.83$5,714.151,212View SEC Filing Icon  
2/12/2021Buy5$1,119.78$5,598.901,202View SEC Filing Icon  
2/10/2021Buy5$1,065.94$5,329.701,192View SEC Filing Icon  
2/8/2021Buy5$1,020.00$5,100.001,182View SEC Filing Icon  
2/5/2021Buy5$992.99$4,964.951,177View SEC Filing Icon  
11/11/2020Buy1,350$1.47$1,984.50
See Full Table

Murray Stahl Buying and Selling Activity at Texas Pacific Land

This chart shows Murray Stahl's buying and selling at Texas Pacific Land by year and by quarter.

Skip ChartChart Data in Insider Trading History Table

Texas Pacific Land Company Overview

Texas Pacific Land logo
Texas Pacific Land Corporation engages in the land and resource management, and water services and operations businesses. The company's Land and Resource Management segment manages approximately 880,000 acres of land. This segment also holds own a 1/128th nonparticipating perpetual oil and gas royalty interest (NPRI) under approximately 85,000 acres of land; a 1/16th NPRI under approximately 371,000 acres of land; and approximately 4,000 additional net royalty acres located in the western part of Texas. In addition, this segment engages in easements and commercial leases activities, such as oil, gas and related hydrocarbons, power line and utility easements, and subsurface wellbore easements. Further, this segment leases its land for processing, storage, and compression facilities and roads; and is involved in sale of materials, such as caliche. Its Water Services and Operations segment provides full-service water offerings, including water sourcing, produced-water gathering/treatment, infrastructure development, disposal solutions, water tracking, analytics, and well testing services to operators in the Permian Basin. This segment also holds royalties for water sourced from its land. Texas Pacific Land Corporation was founded in 1888 and is headquartered in Dallas, Texas.
Read More

Today's Range

Now: $1,658.85
Low: $1,610.75
High: $1,709.00

50 Day Range

MA: $1,641.18
Low: $1,445.52
High: $1,833.85

2 Week Range

Now: $1,658.85
Low: $946.29
High: $1,886.04

Volume

25,266 shs

Average Volume

29,398 shs

Market Capitalization

$12.81 billion

P/E Ratio

33.83

Dividend Yield

0.71%

Beta

2
Wall Street is keeping these stocks a Secret from You..
Imagine looking at a Stock Trading at Under $5 today and seeing it eventually surpass $50!
Continue Reading
pixel